createdAt,value
2022-08-08T00:01:06.539Z,9.10
2022-08-08T00:03:48.089Z,8.13
2022-08-08T00:06:34.205Z,9.43
2022-08-08T00:09:07.852Z,8.40
2022-08-08T00:11:46.538Z,8.30
2022-08-08T00:14:58.905Z,8.70
2022-08-08T00:17:58.511Z,8.37
2022-08-08T00:20:36.141Z,8.47
2022-08-08T00:23:11.688Z,8.70
2022-08-08T00:25:50.892Z,8.80
2022-08-08T00:28:35.638Z,8.57
2022-08-08T00:32:28.790Z,8.60
2022-08-08T00:34:36.981Z,9.10
2022-08-08T00:37:45.028Z,8.60
2022-08-08T00:41:07.147Z,8.93
2022-08-08T00:43:55.949Z,8.30
2022-08-08T00:47:19.470Z,9.30
2022-08-08T00:50:27.947Z,9.17
2022-08-08T00:53:15.495Z,9.57
2022-08-08T00:56:33.036Z,8.47
2022-08-08T00:59:44.771Z,9.50
2022-08-08T01:03:58.284Z,9.20
2022-08-08T01:06:29.785Z,9.93
2022-08-08T01:09:43.046Z,9.07
2022-08-08T01:12:52.290Z,9.50
2022-08-08T01:15:47.361Z,8.63
2022-08-08T01:18:54.794Z,8.37
2022-08-08T01:22:12.513Z,8.30
2022-08-08T01:25:16.816Z,8.23
2022-08-08T01:28:14.990Z,8.33
2022-08-08T01:32:06.582Z,9.10
2022-08-08T01:34:58.014Z,8.40
2022-08-08T01:38:11.367Z,8.77
2022-08-08T01:41:01.449Z,8.50
2022-08-08T01:43:40.553Z,8.83
2022-08-08T01:46:41.880Z,9.57
2022-08-08T01:49:23.048Z,8.63
2022-08-08T01:53:01.325Z,8.93
2022-08-08T01:56:26.603Z,9.07
2022-08-08T01:58:38.285Z,9.43
2022-08-08T02:01:21.071Z,10.17
2022-08-08T02:04:06.447Z,9.30
2022-08-08T02:06:53.307Z,10.40
2022-08-08T02:10:03.511Z,9.70
2022-08-08T02:12:48.269Z,9.53
2022-08-08T02:15:24.854Z,9.80
2022-08-08T02:18:01.284Z,9.80
2022-08-08T02:21:03.047Z,9.73
2022-08-08T02:23:35.108Z,11.57
2022-08-08T02:26:12.948Z,9.97
2022-08-08T02:29:01.357Z,10.20
2022-08-08T02:31:59.506Z,9.43
2022-08-08T02:35:08.576Z,9.70
2022-08-08T02:37:58.474Z,9.80
2022-08-08T02:40:39.118Z,10.70
2022-08-08T02:44:43.194Z,10.60
2022-08-08T02:46:54.961Z,10.80
2022-08-08T02:49:56.166Z,10.40
2022-08-08T02:52:57.641Z,10.33
2022-08-08T02:56:04.148Z,9.83
2022-08-08T02:59:56.723Z,9.13
2022-08-08T03:02:51.528Z,9.43
2022-08-08T03:05:58.643Z,9.70
2022-08-08T03:09:20.594Z,9.57
2022-08-08T03:12:36.488Z,10.13
2022-08-08T03:15:57.760Z,10.13
2022-08-08T03:18:39.393Z,10.50
2022-08-08T03:21:09.550Z,9.40
2022-08-08T03:23:59.522Z,10.40
2022-08-08T03:26:42.097Z,10.30
2022-08-08T03:29:20.861Z,10.00
2022-08-08T03:32:29.107Z,10.50
2022-08-08T03:34:59.669Z,10.37
2022-08-08T03:38:52.586Z,9.90
2022-08-08T03:40:29.314Z,9.90
2022-08-08T03:43:17.995Z,10.47
2022-08-08T03:46:06.610Z,10.70
2022-08-08T03:49:09.634Z,10.10
2022-08-08T03:51:50.293Z,10.30
2022-08-08T03:54:41.236Z,10.17
2022-08-08T03:58:32.413Z,9.90
2022-08-08T04:00:08.158Z,9.20
2022-08-08T04:02:56.332Z,11.30
2022-08-08T04:05:28.010Z,9.90
2022-08-08T04:08:00.776Z,10.40
2022-08-08T04:10:32.998Z,10.80
2022-08-08T04:13:18.647Z,12.47
2022-08-08T04:15:54.905Z,11.80
2022-08-08T04:18:44.666Z,11.87
2022-08-08T04:21:13.805Z,11.40
2022-08-08T04:24:05.811Z,11.37
2022-08-08T04:26:57.530Z,11.43
2022-08-08T04:29:33.401Z,10.97
2022-08-08T04:32:07.522Z,11.40
2022-08-08T04:34:42.923Z,12.20
2022-08-08T04:37:18.189Z,12.10
2022-08-08T04:40:03.231Z,10.73
2022-08-08T04:42:37.305Z,11.30
2022-08-08T04:45:16.539Z,10.67
2022-08-08T04:47:46.363Z,10.90
2022-08-08T04:50:24.131Z,11.80
2022-08-08T04:53:01.218Z,11.70
2022-08-08T04:55:47.114Z,11.03
2022-08-08T04:58:22.722Z,11.33
2022-08-08T05:00:52.769Z,10.73
2022-08-08T05:04:07.777Z,10.80
2022-08-08T05:06:12.644Z,11.87
2022-08-08T05:08:44.869Z,10.27
2022-08-08T05:11:22.685Z,12.40
2022-08-08T05:13:58.024Z,12.53
2022-08-08T05:16:54.650Z,13.07
2022-08-08T05:20:11.423Z,14.23
2022-08-08T05:22:10.121Z,13.27
2022-08-08T05:24:48.184Z,12.93
2022-08-08T05:27:17.965Z,11.60
2022-08-08T05:29:51.702Z,12.90
2022-08-08T05:32:24.603Z,12.83
2022-08-08T05:35:04.567Z,11.90
2022-08-08T05:37:53.360Z,12.17
2022-08-08T05:40:57.896Z,11.53
2022-08-08T05:43:39.582Z,12.27
2022-08-08T05:46:18.716Z,12.10
2022-08-08T05:48:49.868Z,11.80
2022-08-08T05:51:22.455Z,12.43
2022-08-08T05:54:26.979Z,10.20
2022-08-08T05:56:47.582Z,11.70
2022-08-08T06:00:00.214Z,11.27
2022-08-08T06:02:40.737Z,11.00
2022-08-08T06:05:34.045Z,10.23
2022-08-08T06:08:10.223Z,9.23
2022-08-08T06:10:54.656Z,7.60
2022-08-08T06:13:23.860Z,6.70
2022-08-08T06:15:56.030Z,9.27
2022-08-08T06:18:46.054Z,8.30
2022-08-08T06:21:32.683Z,6.60
2022-08-08T06:24:14.105Z,8.70
2022-08-08T06:27:05.567Z,8.20
2022-08-08T06:30:00.313Z,7.20
2022-08-08T06:32:31.451Z,9.17
2022-08-08T06:36:03.965Z,8.63
2022-08-08T06:38:09.415Z,8.17
2022-08-08T06:40:48.810Z,7.20
2022-08-08T06:43:28.606Z,6.23
2022-08-08T06:46:08.644Z,7.40
2022-08-08T06:48:39.040Z,7.23
2022-08-08T06:51:08.739Z,8.47
2022-08-08T06:53:50.816Z,6.80
2022-08-08T06:56:26.357Z,8.97
2022-08-08T06:58:55.370Z,7.53
2022-08-08T07:02:21.450Z,6.10
2022-08-08T07:04:35.608Z,7.70
2022-08-08T07:07:12.363Z,8.83
2022-08-08T07:09:59.283Z,7.80
2022-08-08T07:12:42.974Z,6.33
2022-08-08T07:15:31.816Z,7.17
2022-08-08T07:18:36.612Z,6.13
2022-08-08T07:21:04.785Z,6.70
2022-08-08T07:24:00.876Z,7.47
2022-08-08T07:26:35.726Z,7.47
2022-08-08T07:29:08.157Z,7.40
2022-08-08T07:31:42.269Z,8.40
2022-08-08T07:34:20.253Z,7.37
2022-08-08T07:37:11.818Z,8.70
2022-08-08T07:39:57.829Z,8.33
2022-08-08T07:42:34.547Z,8.70
2022-08-08T07:45:07.608Z,8.40
2022-08-08T07:47:40.441Z,7.23
2022-08-08T07:50:23.379Z,7.30
2022-08-08T07:52:57.404Z,7.03
2022-08-08T07:55:28.936Z,7.50
2022-08-08T07:58:14.575Z,6.43
2022-08-08T08:00:49.485Z,6.77
2022-08-08T08:03:31.151Z,7.23
2022-08-08T08:06:14.317Z,7.07
2022-08-08T08:08:50.459Z,7.60
2022-08-08T08:11:38.265Z,7.63
2022-08-08T08:14:19.269Z,6.23
2022-08-08T08:16:50.850Z,6.60
2022-08-08T08:19:22.981Z,6.33
2022-08-08T08:21:57.595Z,6.13
2022-08-08T08:24:36.479Z,6.10
2022-08-08T08:27:08.458Z,5.90
2022-08-08T08:29:42.268Z,6.20
2022-08-08T08:32:12.186Z,6.07
2022-08-08T08:34:52.728Z,6.43
2022-08-08T08:37:21.650Z,6.53
2022-08-08T08:40:01.420Z,6.87
2022-08-08T08:42:36.388Z,6.40
2022-08-08T08:45:21.120Z,6.47
2022-08-08T08:47:54.285Z,6.90
2022-08-08T08:50:33.129Z,7.00
2022-08-08T08:53:27.153Z,6.47
2022-08-08T08:56:02.213Z,7.00
2022-08-08T08:58:37.814Z,5.83
2022-08-08T09:01:13.335Z,6.17
2022-08-08T09:03:50.685Z,6.13
2022-08-08T09:06:34.161Z,5.70
2022-08-08T09:09:26.149Z,5.77
2022-08-08T09:12:08.521Z,5.90
2022-08-08T09:14:44.887Z,6.67
2022-08-08T09:17:19.229Z,6.10
2022-08-08T09:22:01.801Z,6.37
2022-08-08T09:22:39.531Z,6.00
2022-08-08T09:25:11.621Z,6.50
2022-08-08T09:27:57.126Z,6.50
2022-08-08T09:30:29.805Z,6.30
2022-08-08T09:33:12.805Z,6.50
2022-08-08T09:35:50.901Z,5.80
2022-08-08T09:38:32.969Z,6.23
2022-08-08T09:41:06.497Z,6.40
2022-08-08T09:44:06.523Z,6.53
2022-08-08T09:46:35.578Z,5.60
2022-08-08T09:49:41.311Z,5.90
2022-08-08T09:52:06.895Z,5.80
2022-08-08T09:54:44.019Z,6.00
2022-08-08T09:57:17.427Z,5.80
2022-08-08T10:00:14.639Z,6.10
2022-08-08T10:02:44.855Z,5.90
2022-08-08T10:05:25.648Z,6.17
2022-08-08T10:07:59.807Z,6.10
2022-08-08T10:10:31.943Z,5.60
2022-08-08T10:13:14.118Z,5.47
2022-08-08T10:16:01.105Z,6.13
2022-08-08T10:18:31.839Z,5.50
2022-08-08T10:21:22.624Z,6.00
2022-08-08T10:23:58.974Z,5.77
2022-08-08T10:26:52.459Z,6.20
2022-08-08T10:29:25.136Z,6.10
2022-08-08T10:32:17.021Z,5.57
2022-08-08T10:34:57.024Z,5.80
2022-08-08T10:37:31.713Z,5.67
2022-08-08T10:40:16.786Z,5.07
2022-08-08T10:42:48.227Z,5.60
2022-08-08T10:45:16.622Z,5.30
2022-08-08T10:47:48.510Z,5.50
2022-08-08T10:50:23.936Z,5.80
2022-08-08T10:53:03.214Z,5.27
2022-08-08T10:55:41.017Z,5.40
2022-08-08T10:58:15.771Z,6.00
2022-08-08T11:00:53.605Z,5.47
2022-08-08T11:04:01.304Z,5.67
2022-08-08T11:06:31.793Z,5.53
2022-08-08T11:09:15.270Z,5.30
2022-08-08T11:12:05.066Z,4.50
2022-08-08T11:14:48.530Z,5.20
2022-08-08T11:17:58.165Z,5.47
2022-08-08T11:20:12.266Z,5.13
2022-08-08T11:22:41.748Z,5.50
2022-08-08T11:25:13.739Z,5.63
2022-08-08T11:27:44.568Z,4.90
2022-08-08T11:30:19.895Z,5.23
2022-08-08T11:32:53.806Z,4.90
2022-08-08T11:35:37.686Z,5.90
2022-08-08T11:38:35.861Z,5.60
2022-08-08T11:40:57.343Z,5.67
2022-08-08T11:43:38.884Z,5.20
2022-08-08T11:46:17.380Z,5.17
2022-08-08T11:48:48.741Z,5.10
2022-08-08T11:51:38.940Z,5.23
2022-08-08T11:54:26.963Z,5.10
2022-08-08T11:57:14.498Z,5.00
2022-08-08T12:00:00.709Z,5.10
2022-08-08T12:02:48.307Z,5.20
2022-08-08T12:05:22.646Z,5.33
2022-08-08T12:07:52.753Z,5.27
2022-08-08T12:10:22.947Z,5.23
2022-08-08T12:13:02.317Z,5.20
2022-08-08T12:15:41.798Z,4.90
2022-08-08T12:18:17.912Z,4.97
2022-08-08T12:20:46.965Z,5.20
2022-08-08T12:23:30.619Z,4.90
2022-08-08T12:26:09.970Z,4.93
2022-08-08T12:28:57.130Z,4.80
2022-08-08T12:31:39.467Z,5.00
2022-08-08T12:34:37.152Z,4.80
2022-08-08T12:37:08.401Z,4.80
2022-08-08T12:40:02.087Z,4.60
2022-08-08T12:42:33.873Z,4.40
2022-08-08T12:45:07.315Z,4.40
2022-08-08T12:48:04.576Z,4.57
2022-08-08T12:50:46.588Z,4.93
2022-08-08T12:53:23.897Z,4.70
2022-08-08T12:56:19.216Z,5.00
2022-08-08T12:58:51.506Z,4.30
2022-08-08T13:01:24.726Z,4.60
2022-08-08T13:04:19.180Z,4.80
2022-08-08T13:07:00.536Z,4.60
2022-08-08T13:09:57.383Z,4.47
2022-08-08T13:12:29.416Z,4.43
2022-08-08T13:15:07.806Z,4.00
2022-08-08T13:18:08.378Z,4.23
2022-08-08T13:20:27.153Z,4.67
2022-08-08T13:25:51.097Z,4.60
2022-08-08T13:28:32.312Z,4.33
2022-08-08T13:31:04.037Z,4.73
2022-08-08T13:33:42.607Z,4.63
2022-08-08T13:36:12.042Z,4.30
2022-08-08T13:38:40.911Z,4.77
2022-08-08T13:41:17.045Z,4.50
2022-08-08T13:43:47.452Z,3.90
2022-08-08T13:46:26.687Z,3.93
2022-08-08T13:50:33.563Z,4.50
2022-08-08T13:52:01.030Z,4.17
2022-08-08T13:54:31.380Z,4.03
2022-08-08T13:57:11.068Z,4.33
2022-08-08T13:59:44.409Z,4.30
2022-08-08T14:02:20.558Z,4.00
2022-08-08T14:05:04.687Z,3.77
2022-08-08T14:07:39.396Z,4.10
2022-08-08T14:10:17.410Z,4.50
2022-08-08T14:12:46.829Z,4.53
2022-08-08T14:15:31.535Z,3.77
2022-08-08T14:18:34.673Z,4.43
2022-08-08T14:21:08.246Z,4.10
2022-08-08T14:24:07.795Z,4.27
2022-08-08T14:26:33.476Z,3.87
2022-08-08T14:29:05.837Z,4.20
2022-08-08T14:32:12.840Z,4.30
2022-08-08T14:34:37.557Z,4.03
2022-08-08T14:37:08.776Z,4.30
2022-08-08T14:39:48.534Z,4.40
2022-08-08T14:42:17.748Z,4.20
2022-08-08T14:45:00.326Z,3.90
2022-08-08T14:47:36.028Z,3.93
2022-08-08T14:50:16.079Z,4.43
2022-08-08T14:52:59.398Z,4.07
2022-08-08T14:55:41.202Z,4.00
2022-08-08T14:58:16.252Z,3.93
2022-08-08T15:00:45.795Z,4.40
2022-08-08T15:03:17.213Z,4.17
2022-08-08T15:05:54.031Z,3.70
2022-08-08T15:08:34.391Z,3.90
2022-08-08T15:11:04.325Z,4.30
2022-08-08T15:13:39.693Z,3.90
2022-08-08T15:16:11.672Z,4.33
2022-08-08T15:18:49.880Z,4.60
2022-08-08T15:21:20.799Z,3.90
2022-08-08T15:23:52.002Z,3.77
2022-08-08T15:26:20.695Z,4.20
2022-08-08T15:28:53.357Z,3.90
2022-08-08T15:31:25.852Z,3.70
2022-08-08T15:34:29.603Z,3.97
2022-08-08T15:37:00.078Z,4.27
2022-08-08T15:39:37.556Z,3.80
2022-08-08T15:42:13.361Z,4.10
2022-08-08T15:44:56.082Z,4.30
2022-08-08T15:47:24.622Z,4.17
2022-08-08T15:49:53.477Z,3.80
2022-08-08T15:52:25.717Z,3.87
2022-08-08T15:54:55.506Z,3.90
2022-08-08T15:57:24.206Z,4.10
2022-08-08T16:00:06.015Z,3.87
2022-08-08T16:02:50.456Z,4.10
2022-08-08T16:05:21.567Z,4.43
2022-08-08T16:07:54.156Z,4.30
2022-08-08T16:13:04.686Z,3.97
2022-08-08T16:13:30.947Z,3.80
2022-08-08T16:16:13.128Z,4.23
2022-08-08T16:18:57.107Z,4.50
2022-08-08T16:21:30.748Z,4.03
2022-08-08T16:24:01.819Z,4.27
2022-08-08T16:26:35.032Z,3.93
2022-08-08T16:29:07.892Z,4.23
2022-08-08T16:31:40.356Z,4.30
2022-08-08T16:34:08.994Z,4.33
2022-08-08T16:36:37.748Z,4.50
2022-08-08T16:39:17.110Z,4.20
2022-08-08T16:42:01.185Z,3.80
2022-08-08T16:44:34.050Z,4.13
2022-08-08T16:47:21.742Z,4.30
2022-08-08T16:49:50.328Z,4.87
2022-08-08T16:55:05.496Z,5.30
2022-08-08T16:55:52.155Z,4.20
2022-08-08T16:58:14.983Z,4.10
2022-08-08T17:00:49.135Z,4.40
2022-08-08T17:03:24.990Z,4.50
2022-08-08T17:06:35.418Z,4.30
2022-08-08T17:08:56.927Z,4.10
2022-08-08T17:11:28.035Z,4.60
2022-08-08T17:14:01.557Z,4.40
2022-08-08T17:16:30.109Z,4.47
2022-08-08T17:19:00.677Z,4.30
2022-08-08T17:21:37.641Z,4.00
2022-08-08T17:24:21.860Z,4.43
2022-08-08T17:26:57.979Z,4.37
2022-08-08T17:29:28.583Z,4.33
2022-08-08T17:32:02.652Z,4.60
2022-08-08T17:34:49.303Z,4.83
2022-08-08T17:37:19.456Z,4.57
2022-08-08T17:40:11.008Z,4.33
2022-08-08T17:42:36.578Z,4.53
2022-08-08T17:45:07.203Z,4.40
2022-08-08T17:47:42.774Z,5.03
2022-08-08T17:50:13.526Z,4.60
2022-08-08T17:52:43.040Z,4.70
2022-08-08T17:56:05.150Z,4.27
2022-08-08T17:58:02.010Z,5.10
2022-08-08T18:00:32.181Z,4.43
2022-08-08T18:03:07.372Z,4.40
2022-08-08T18:05:48.148Z,4.60
2022-08-08T18:08:25.317Z,4.60
2022-08-08T18:11:14.413Z,4.73
2022-08-08T18:13:45.216Z,4.40
2022-08-08T18:16:17.326Z,4.53
2022-08-08T18:18:53.851Z,4.50
2022-08-08T18:21:58.814Z,4.60
2022-08-08T18:24:18.957Z,4.03
2022-08-08T18:26:54.210Z,4.40
2022-08-08T18:29:29.423Z,4.40
2022-08-08T18:32:00.547Z,4.60
2022-08-08T18:34:33.198Z,4.63
2022-08-08T18:37:04.829Z,4.50
2022-08-08T18:39:36.622Z,5.03
2022-08-08T18:42:10.252Z,4.10
2022-08-08T18:44:55.483Z,5.10
2022-08-08T18:47:28.022Z,4.90
2022-08-08T18:50:00.440Z,5.50
2022-08-08T18:52:33.895Z,6.10
2022-08-08T18:55:10.755Z,5.73
2022-08-08T18:57:43.385Z,5.73
2022-08-08T19:00:15.591Z,5.37
2022-08-08T19:02:48.306Z,5.40
2022-08-08T19:05:23.179Z,4.90
2022-08-08T19:07:52.748Z,5.37
2022-08-08T19:10:21.089Z,4.40
2022-08-08T19:12:53.363Z,4.93
2022-08-08T19:15:23.961Z,5.40
2022-08-08T19:18:32.047Z,5.40
2022-08-08T19:20:54.385Z,5.13
2022-08-08T19:23:22.815Z,4.80
2022-08-08T19:26:25.033Z,5.40
2022-08-08T19:28:42.155Z,5.43
2022-08-08T19:31:13.159Z,4.80
2022-08-08T19:33:52.141Z,5.20
2022-08-08T19:36:35.640Z,5.30
2022-08-08T19:39:06.446Z,5.00
2022-08-08T19:41:37.686Z,5.17
2022-08-08T19:44:13.218Z,5.13
2022-08-08T19:46:54.646Z,5.07
2022-08-08T19:49:26.295Z,5.10
2022-08-08T19:51:54.454Z,5.60
2022-08-08T19:54:23.494Z,5.50
2022-08-08T19:56:52.142Z,5.33
2022-08-08T19:59:22.594Z,5.07
2022-08-08T20:02:01.025Z,4.93
2022-08-08T20:04:33.473Z,5.20
2022-08-08T20:07:03.595Z,5.23
2022-08-08T20:09:56.222Z,5.40
2022-08-08T20:12:32.485Z,5.57
2022-08-08T20:15:14.472Z,4.83
2022-08-08T20:17:46.949Z,5.20
2022-08-08T20:20:19.021Z,5.20
2022-08-08T20:22:53.799Z,5.40
2022-08-08T20:25:22.848Z,5.50
2022-08-08T20:27:55.156Z,5.40
2022-08-08T20:30:52.961Z,5.40
2022-08-08T20:35:58.511Z,5.83
2022-08-08T20:38:33.546Z,6.17
2022-08-08T20:41:16.876Z,5.70
2022-08-08T20:43:48.210Z,5.37
2022-08-08T20:46:20.659Z,5.90
2022-08-08T20:48:51.273Z,5.77
2022-08-08T20:51:21.224Z,6.00
2022-08-08T20:53:59.583Z,6.10
2022-08-08T20:56:35.100Z,5.67
2022-08-08T20:59:08.646Z,6.10
2022-08-08T21:02:05.509Z,5.73
2022-08-08T21:04:27.555Z,6.00
2022-08-08T21:06:57.654Z,5.60
2022-08-08T21:09:31.604Z,5.43
2022-08-08T21:12:14.369Z,5.50
2022-08-08T21:14:49.196Z,5.40
2022-08-08T21:17:17.407Z,5.80
2022-08-08T21:19:47.805Z,5.40
2022-08-08T21:22:17.541Z,6.20
2022-08-08T21:24:53.825Z,5.50
2022-08-08T21:28:05.427Z,6.47
2022-08-08T21:30:17.863Z,5.43
2022-08-08T21:32:52.367Z,6.20
2022-08-08T21:36:14.435Z,5.33
2022-08-08T21:38:18.021Z,5.77
2022-08-08T21:40:56.147Z,5.27
2022-08-08T21:43:31.113Z,5.50
2022-08-08T21:48:07.951Z,6.03
2022-08-08T21:48:52.472Z,5.53
2022-08-08T21:54:18.118Z,5.67
2022-08-08T21:54:30.894Z,6.50
2022-08-08T21:57:00.664Z,5.43
2022-08-08T22:00:01.286Z,5.83
2022-08-08T22:02:19.369Z,5.77
2022-08-08T22:04:52.820Z,5.43
2022-08-08T22:07:26.016Z,5.23
2022-08-08T22:10:09.382Z,5.03
2022-08-08T22:12:38.816Z,5.40
2022-08-08T22:15:08.588Z,5.20
2022-08-08T22:17:45.199Z,5.43
2022-08-08T22:20:23.802Z,5.93
2022-08-08T22:22:56.364Z,5.83
2022-08-08T22:25:26.162Z,5.03
2022-08-08T22:28:03.561Z,5.83
2022-08-08T22:30:53.080Z,6.03
2022-08-08T22:34:13.574Z,6.10
2022-08-08T22:36:12.428Z,6.13
2022-08-08T22:38:48.131Z,5.60
2022-08-08T22:41:21.751Z,5.67
2022-08-08T22:44:02.235Z,5.63
2022-08-08T22:46:34.412Z,6.20
2022-08-08T22:49:09.427Z,6.07
2022-08-08T22:51:42.218Z,6.40
2022-08-08T22:54:33.469Z,6.20
2022-08-08T22:57:11.713Z,6.30
2022-08-08T22:59:52.825Z,5.53
2022-08-08T23:02:29.523Z,6.13
2022-08-08T23:05:04.728Z,6.17
2022-08-08T23:07:50.940Z,6.87
2022-08-08T23:10:25.424Z,6.90
2022-08-08T23:12:56.608Z,6.63
2022-08-08T23:16:39.108Z,6.67
2022-08-08T23:18:14.215Z,6.20
2022-08-08T23:20:44.069Z,6.63
2022-08-08T23:23:13.285Z,7.00
2022-08-08T23:25:47.830Z,6.60
2022-08-08T23:28:19.141Z,7.17
2022-08-08T23:30:48.027Z,6.83
2022-08-08T23:33:21.087Z,7.17
2022-08-08T23:36:08.776Z,6.73
2022-08-08T23:38:44.216Z,6.70
2022-08-08T23:41:23.198Z,6.57
2022-08-08T23:43:56.396Z,7.10
2022-08-08T23:49:05.980Z,6.30
2022-08-08T23:49:18.230Z,6.70
2022-08-08T23:52:04.047Z,7.10
2022-08-08T23:54:42.936Z,6.57
2022-08-08T23:57:27.216Z,5.97
